sensor_id;sensor_type;location;lat;lon;timestamp;pressure;altitude;pressure_sealevel;temperature
29701;BMP280;57917;51.380;-0.176;2023-05-14T00:00:47;102092.41;;;11.43
29701;BMP280;57917;51.380;-0.176;2023-05-14T00:06:34;102090.81;;;11.42
29701;BMP280;57917;51.380;-0.176;2023-05-14T00:12:23;102094.59;;;11.68
29701;BMP280;57917;51.380;-0.176;2023-05-14T00:18:10;102077.03;;;11.23
29701;BMP280;57917;51.380;-0.176;2023-05-14T00:24:00;102098.78;;;11.42
29701;BMP280;57917;51.380;-0.176;2023-05-14T00:29:49;102091.66;;;11.64
29701;BMP280;57917;51.380;-0.176;2023-05-14T00:35:40;102082.38;;;11.45
29701;BMP280;57917;51.380;-0.176;2023-05-14T00:41:28;102074.78;;;11.54
29701;BMP280;57917;51.380;-0.176;2023-05-14T00:47:15;102063.38;;;11.53
29701;BMP280;57917;51.380;-0.176;2023-05-14T00:53:05;102061.44;;;11.27
29701;BMP280;57917;51.380;-0.176;2023-05-14T00:58:56;102061.72;;;10.92
29701;BMP280;57917;51.380;-0.176;2023-05-14T01:04:44;102058.38;;;10.64
29701;BMP280;57917;51.380;-0.176;2023-05-14T01:10:51;102039.00;;;10.96
29701;BMP280;57917;51.380;-0.176;2023-05-14T01:16:41;102044.47;;;11.28
29701;BMP280;57917;51.380;-0.176;2023-05-14T01:22:32;102040.75;;;11.29
29701;BMP280;57917;51.380;-0.176;2023-05-14T01:28:25;102032.63;;;11.14
29701;BMP280;57917;51.380;-0.176;2023-05-14T01:34:19;102038.88;;;11.24
29701;BMP280;57917;51.380;-0.176;2023-05-14T01:40:08;102031.34;;;11.16
29701;BMP280;57917;51.380;-0.176;2023-05-14T01:45:56;102018.53;;;11.52
29701;BMP280;57917;51.380;-0.176;2023-05-14T01:51:49;102015.81;;;11.47
29701;BMP280;57917;51.380;-0.176;2023-05-14T01:57:39;102004.53;;;11.56
29701;BMP280;57917;51.380;-0.176;2023-05-14T02:03:30;102014.88;;;11.36
29701;BMP280;57917;51.380;-0.176;2023-05-14T02:09:17;102010.00;;;11.50
29701;BMP280;57917;51.380;-0.176;2023-05-14T02:15:04;102012.38;;;11.24
29701;BMP280;57917;51.380;-0.176;2023-05-14T02:20:51;102015.19;;;10.80
29701;BMP280;57917;51.380;-0.176;2023-05-14T02:26:38;102016.66;;;11.09
29701;BMP280;57917;51.380;-0.176;2023-05-14T02:32:27;102012.72;;;11.11
29701;BMP280;57917;51.380;-0.176;2023-05-14T02:38:25;102000.81;;;11.14
29701;BMP280;57917;51.380;-0.176;2023-05-14T02:44:15;102003.78;;;10.46
29701;BMP280;57917;51.380;-0.176;2023-05-14T02:50:02;102008.75;;;10.43
29701;BMP280;57917;51.380;-0.176;2023-05-14T02:55:51;101995.91;;;10.51
29701;BMP280;57917;51.380;-0.176;2023-05-14T03:01:44;101985.56;;;10.66
29701;BMP280;57917;51.380;-0.176;2023-05-14T03:07:32;101976.16;;;10.75
29701;BMP280;57917;51.380;-0.176;2023-05-14T03:13:19;101974.72;;;10.68
29701;BMP280;57917;51.380;-0.176;2023-05-14T03:19:07;101976.78;;;10.82
29701;BMP280;57917;51.380;-0.176;2023-05-14T03:24:57;101985.03;;;10.31
29701;BMP280;57917;51.380;-0.176;2023-05-14T03:30:44;101978.34;;;10.62
29701;BMP280;57917;51.380;-0.176;2023-05-14T03:36:31;101967.47;;;10.96
29701;BMP280;57917;51.380;-0.176;2023-05-14T03:42:21;101951.19;;;11.09
29701;BMP280;57917;51.380;-0.176;2023-05-14T03:48:08;101947.75;;;10.87
29701;BMP280;57917;51.380;-0.176;2023-05-14T03:53:58;101945.50;;;10.63
29701;BMP280;57917;51.380;-0.176;2023-05-14T03:59:46;101951.00;;;10.73
29701;BMP280;57917;51.380;-0.176;2023-05-14T04:05:34;101966.69;;;10.13
29701;BMP280;57917;51.380;-0.176;2023-05-14T04:11:24;101972.78;;;10.14
29701;BMP280;57917;51.380;-0.176;2023-05-14T04:17:14;101955.66;;;10.49
29701;BMP280;57917;51.380;-0.176;2023-05-14T04:23:01;101959.16;;;10.55
29701;BMP280;57917;51.380;-0.176;2023-05-14T04:28:50;101960.09;;;10.82
29701;BMP280;57917;51.380;-0.176;2023-05-14T04:34:38;101960.19;;;10.87
29701;BMP280;57917;51.380;-0.176;2023-05-14T04:40:29;101954.50;;;10.78
29701;BMP280;57917;51.380;-0.176;2023-05-14T04:46:16;101942.03;;;10.41
29701;BMP280;57917;51.380;-0.176;2023-05-14T04:52:04;101939.44;;;10.46
29701;BMP280;57917;51.380;-0.176;2023-05-14T04:57:54;101949.56;;;10.49
29701;BMP280;57917;51.380;-0.176;2023-05-14T05:03:41;101938.38;;;10.63
29701;BMP280;57917;51.380;-0.176;2023-05-14T05:09:28;101942.09;;;10.46
29701;BMP280;57917;51.380;-0.176;2023-05-14T05:15:15;101952.97;;;10.66
29701;BMP280;57917;51.380;-0.176;2023-05-14T05:21:09;101953.88;;;10.55
29701;BMP280;57917;51.380;-0.176;2023-05-14T05:26:56;101936.78;;;10.62
29701;BMP280;57917;51.380;-0.176;2023-05-14T05:32:46;101953.09;;;10.92
29701;BMP280;57917;51.380;-0.176;2023-05-14T05:38:36;101957.91;;;10.95
29701;BMP280;57917;51.380;-0.176;2023-05-14T05:44:23;101945.69;;;10.94
29701;BMP280;57917;51.380;-0.176;2023-05-14T05:50:12;101956.75;;;10.53
29701;BMP280;57917;51.380;-0.176;2023-05-14T05:55:59;101958.03;;;10.67
29701;BMP280;57917;51.380;-0.176;2023-05-14T06:01:49;101969.28;;;10.25
29701;BMP280;57917;51.380;-0.176;2023-05-14T06:07:37;101953.25;;;10.48
29701;BMP280;57917;51.380;-0.176;2023-05-14T06:13:25;101936.59;;;10.52
29701;BMP280;57917;51.380;-0.176;2023-05-14T06:19:13;101940.94;;;10.75
29701;BMP280;57917;51.380;-0.176;2023-05-14T06:25:04;101931.84;;;10.87
29701;BMP280;57917;51.380;-0.176;2023-05-14T06:30:51;101915.97;;;10.87
29701;BMP280;57917;51.380;-0.176;2023-05-14T06:36:40;101919.44;;;11.14
29701;BMP280;57917;51.380;-0.176;2023-05-14T06:42:27;101914.56;;;11.06
29701;BMP280;57917;51.380;-0.176;2023-05-14T06:48:14;101911.44;;;10.88
29701;BMP280;57917;51.380;-0.176;2023-05-14T06:54:01;101910.63;;;11.30
29701;BMP280;57917;51.380;-0.176;2023-05-14T06:59:48;101905.56;;;11.29
29701;BMP280;57917;51.380;-0.176;2023-05-14T07:05:36;101901.25;;;11.23
29701;BMP280;57917;51.380;-0.176;2023-05-14T07:11:26;101897.53;;;11.46
29701;BMP280;57917;51.380;-0.176;2023-05-14T07:17:14;101886.94;;;11.46
29701;BMP280;57917;51.380;-0.176;2023-05-14T07:23:05;101882.13;;;11.69
29701;BMP280;57917;51.380;-0.176;2023-05-14T07:28:57;101869.06;;;11.63
29701;BMP280;57917;51.380;-0.176;2023-05-14T07:34:49;101872.97;;;11.87
29701;BMP280;57917;51.380;-0.176;2023-05-14T07:40:37;101867.16;;;11.90
29701;BMP280;57917;51.380;-0.176;2023-05-14T07:46:28;101868.22;;;12.25
29701;BMP280;57917;51.380;-0.176;2023-05-14T07:52:24;101867.25;;;12.41
29701;BMP280;57917;51.380;-0.176;2023-05-14T07:58:48;101859.28;;;12.41
29701;BMP280;57917;51.380;-0.176;2023-05-14T08:04:40;101860.47;;;12.75
29701;BMP280;57917;51.380;-0.176;2023-05-14T08:10:48;101852.03;;;12.89
29701;BMP280;57917;51.380;-0.176;2023-05-14T08:16:35;101861.59;;;12.90
29701;BMP280;57917;51.380;-0.176;2023-05-14T08:22:22;101868.09;;;13.44
29701;BMP280;57917;51.380;-0.176;2023-05-14T08:28:09;101839.94;;;13.58
29701;BMP280;57917;51.380;-0.176;2023-05-14T08:33:57;101847.13;;;13.57
29701;BMP280;57917;51.380;-0.176;2023-05-14T08:39:45;101843.88;;;13.90
29701;BMP280;57917;51.380;-0.176;2023-05-14T08:45:34;101851.47;;;14.47
29701;BMP280;57917;51.380;-0.176;2023-05-14T08:51:25;101829.53;;;15.04
29701;BMP280;57917;51.380;-0.176;2023-05-14T08:57:13;101820.56;;;14.85
29701;BMP280;57917;51.380;-0.176;2023-05-14T09:03:26;101830.19;;;14.32
29701;BMP280;57917;51.380;-0.176;2023-05-14T09:09:38;101833.56;;;14.48
29701;BMP280;57917;51.380;-0.176;2023-05-14T09:15:40;101833.75;;;13.92
29701;BMP280;57917;51.380;-0.176;2023-05-14T09:21:32;101820.56;;;14.85
29701;BMP280;57917;51.380;-0.176;2023-05-14T09:27:22;101830.03;;;15.44
29701;BMP280;57917;51.380;-0.176;2023-05-14T09:33:27;101821.00;;;15.35
29701;BMP280;57917;51.380;-0.176;2023-05-14T09:39:25;101812.00;;;15.83
29701;BMP280;57917;51.380;-0.176;2023-05-14T09:45:14;101822.25;;;16.23
29701;BMP280;57917;51.380;-0.176;2023-05-14T09:51:01;101811.28;;;16.81
29701;BMP280;57917;51.380;-0.176;2023-05-14T09:56:53;101796.31;;;17.57
29701;BMP280;57917;51.380;-0.176;2023-05-14T10:02:44;101789.28;;;18.02
29701;BMP280;57917;51.380;-0.176;2023-05-14T10:08:40;101789.34;;;17.97
29701;BMP280;57917;51.380;-0.176;2023-05-14T10:14:35;101786.69;;;17.97
29701;BMP280;57917;51.380;-0.176;2023-05-14T10:20:25;101784.06;;;18.19
29701;BMP280;57917;51.380;-0.176;2023-05-14T10:26:15;101793.31;;;19.15
29701;BMP280;57917;51.380;-0.176;2023-05-14T10:32:05;101782.09;;;19.60
29701;BMP280;57917;51.380;-0.176;2023-05-14T10:37:53;101767.31;;;19.88
29701;BMP280;57917;51.380;-0.176;2023-05-14T10:43:43;101761.28;;;20.08
29701;BMP280;57917;51.380;-0.176;2023-05-14T10:49:30;101751.47;;;20.63
29701;BMP280;57917;51.380;-0.176;2023-05-14T10:55:30;101756.91;;;21.30
29701;BMP280;57917;51.380;-0.176;2023-05-14T11:01:17;101743.88;;;21.40
29701;BMP280;57917;51.380;-0.176;2023-05-14T11:07:08;101754.38;;;21.54
29701;BMP280;57917;51.380;-0.176;2023-05-14T11:12:56;101732.78;;;21.62
29701;BMP280;57917;51.380;-0.176;2023-05-14T11:18:44;101718.25;;;20.97
29701;BMP280;57917;51.380;-0.176;2023-05-14T11:24:33;101711.94;;;21.51
29701;BMP280;57917;51.380;-0.176;2023-05-14T11:30:20;101721.28;;;20.07
29701;BMP280;57917;51.380;-0.176;2023-05-14T11:36:14;101715.06;;;20.57
29701;BMP280;57917;51.380;-0.176;2023-05-14T11:42:02;101718.00;;;21.10
29701;BMP280;57917;51.380;-0.176;2023-05-14T11:47:49;101705.66;;;21.67
29701;BMP280;57917;51.380;-0.176;2023-05-14T11:53:43;101694.31;;;21.94
29701;BMP280;57917;51.380;-0.176;2023-05-14T11:59:31;101689.84;;;22.10
29701;BMP280;57917;51.380;-0.176;2023-05-14T12:05:19;101684.75;;;20.77
29701;BMP280;57917;51.380;-0.176;2023-05-14T12:11:09;101693.13;;;20.13
29701;BMP280;57917;51.380;-0.176;2023-05-14T12:17:00;101677.56;;;20.44
29701;BMP280;57917;51.380;-0.176;2023-05-14T12:22:59;101675.41;;;20.75
29701;BMP280;57917;51.380;-0.176;2023-05-14T12:28:58;101659.44;;;21.07
29701;BMP280;57917;51.380;-0.176;2023-05-14T12:34:49;101650.13;;;19.96
29701;BMP280;57917;51.380;-0.176;2023-05-14T12:40:47;101657.25;;;19.83
29701;BMP280;57917;51.380;-0.176;2023-05-14T12:46:35;101638.41;;;20.09
29701;BMP280;57917;51.380;-0.176;2023-05-14T12:52:33;101642.00;;;20.84
29701;BMP280;57917;51.380;-0.176;2023-05-14T12:58:25;101636.38;;;20.89
29701;BMP280;57917;51.380;-0.176;2023-05-14T13:04:17;101610.13;;;20.57
29701;BMP280;57917;51.380;-0.176;2023-05-14T13:10:05;101615.84;;;20.56
29701;BMP280;57917;51.380;-0.176;2023-05-14T13:15:52;101593.97;;;21.15
29701;BMP280;57917;51.380;-0.176;2023-05-14T13:21:39;101598.88;;;21.54
29701;BMP280;57917;51.380;-0.176;2023-05-14T13:27:33;101609.94;;;21.20
29701;BMP280;57917;51.380;-0.176;2023-05-14T13:33:26;101597.72;;;21.43
29701;BMP280;57917;51.380;-0.176;2023-05-14T13:39:17;101576.38;;;21.18
29701;BMP280;57917;51.380;-0.176;2023-05-14T13:45:18;101571.44;;;21.73
29701;BMP280;57917;51.380;-0.176;2023-05-14T13:51:19;101564.03;;;21.49
29701;BMP280;57917;51.380;-0.176;2023-05-14T13:57:16;101556.31;;;20.86
29701;BMP280;57917;51.380;-0.176;2023-05-14T14:03:10;101532.88;;;20.87
29701;BMP280;57917;51.380;-0.176;2023-05-14T14:08:58;101553.75;;;20.61
29701;BMP280;57917;51.380;-0.176;2023-05-14T14:14:47;101536.56;;;21.23
29701;BMP280;57917;51.380;-0.176;2023-05-14T14:20:37;101535.31;;;21.53
29701;BMP280;57917;51.380;-0.176;2023-05-14T14:26:24;101517.06;;;21.59
29701;BMP280;57917;51.380;-0.176;2023-05-14T14:32:15;101517.44;;;21.81
29701;BMP280;57917;51.380;-0.176;2023-05-14T14:38:02;101513.41;;;21.75
29701;BMP280;57917;51.380;-0.176;2023-05-14T14:43:49;101489.13;;;21.75
29701;BMP280;57917;51.380;-0.176;2023-05-14T14:49:36;101486.69;;;21.94
29701;BMP280;57917;51.380;-0.176;2023-05-14T14:55:28;101487.44;;;21.83
29701;BMP280;57917;51.380;-0.176;2023-05-14T15:01:15;101491.63;;;22.29
29701;BMP280;57917;51.380;-0.176;2023-05-14T15:07:04;101491.47;;;22.37
29701;BMP280;57917;51.380;-0.176;2023-05-14T15:12:51;101485.78;;;22.02
29701;BMP280;57917;51.380;-0.176;2023-05-14T15:18:40;101470.75;;;22.14
29701;BMP280;57917;51.380;-0.176;2023-05-14T15:24:27;101484.53;;;22.00
29701;BMP280;57917;51.380;-0.176;2023-05-14T15:30:14;101479.50;;;21.98
29701;BMP280;57917;51.380;-0.176;2023-05-14T15:36:01;101452.94;;;21.64
29701;BMP280;57917;51.380;-0.176;2023-05-14T15:41:55;101467.78;;;21.70
29701;BMP280;57917;51.380;-0.176;2023-05-14T15:47:42;101462.41;;;22.06
29701;BMP280;57917;51.380;-0.176;2023-05-14T15:53:30;101453.19;;;22.20
29701;BMP280;57917;51.380;-0.176;2023-05-14T15:59:18;101453.59;;;22.46
29701;BMP280;57917;51.380;-0.176;2023-05-14T16:05:06;101440.94;;;22.74
29701;BMP280;57917;51.380;-0.176;2023-05-14T16:10:54;101435.72;;;22.81
29701;BMP280;57917;51.380;-0.176;2023-05-14T16:16:41;101434.91;;;22.41
29701;BMP280;57917;51.380;-0.176;2023-05-14T16:22:29;101430.38;;;21.81
29701;BMP280;57917;51.380;-0.176;2023-05-14T16:28:20;101423.19;;;21.85
29701;BMP280;57917;51.380;-0.176;2023-05-14T16:34:08;101410.72;;;22.17
29701;BMP280;57917;51.380;-0.176;2023-05-14T16:39:56;101407.59;;;21.90
29701;BMP280;57917;51.380;-0.176;2023-05-14T16:45:43;101411.16;;;22.06
29701;BMP280;57917;51.380;-0.176;2023-05-14T16:51:36;101415.53;;;22.11
29701;BMP280;57917;51.380;-0.176;2023-05-14T16:57:46;101408.16;;;21.84
29701;BMP280;57917;51.380;-0.176;2023-05-14T17:03:36;101411.31;;;21.74
29701;BMP280;57917;51.380;-0.176;2023-05-14T17:09:29;101407.56;;;21.54
29701;BMP280;57917;51.380;-0.176;2023-05-14T17:15:17;101413.06;;;21.58
29701;BMP280;57917;51.380;-0.176;2023-05-14T17:21:08;101429.91;;;21.43
29701;BMP280;57917;51.380;-0.176;2023-05-14T17:26:56;101417.19;;;20.99
29701;BMP280;57917;51.380;-0.176;2023-05-14T17:32:43;101435.19;;;20.86
29701;BMP280;57917;51.380;-0.176;2023-05-14T17:38:30;101444.03;;;20.66
29701;BMP280;57917;51.380;-0.176;2023-05-14T17:44:20;101430.34;;;20.59
29701;BMP280;57917;51.380;-0.176;2023-05-14T17:50:07;101440.44;;;20.62
29701;BMP280;57917;51.380;-0.176;2023-05-14T17:55:56;101438.91;;;20.73
29701;BMP280;57917;51.380;-0.176;2023-05-14T18:01:44;101435.38;;;20.61
29701;BMP280;57917;51.380;-0.176;2023-05-14T18:07:32;101428.81;;;20.50
29701;BMP280;57917;51.380;-0.176;2023-05-14T18:13:22;101418.25;;;20.45
29701;BMP280;57917;51.380;-0.176;2023-05-14T18:19:10;101414.84;;;20.27
29701;BMP280;57917;51.380;-0.176;2023-05-14T18:24:57;101415.34;;;20.29
29701;BMP280;57917;51.380;-0.176;2023-05-14T18:30:49;101412.38;;;20.22
29701;BMP280;57917;51.380;-0.176;2023-05-14T18:36:44;101415.63;;;20.07
29701;BMP280;57917;51.380;-0.176;2023-05-14T18:42:32;101422.75;;;20.03
29701;BMP280;57917;51.380;-0.176;2023-05-14T18:48:19;101437.69;;;19.84
29701;BMP280;57917;51.380;-0.176;2023-05-14T18:54:16;101445.28;;;19.82
29701;BMP280;57917;51.380;-0.176;2023-05-14T19:00:08;101443.13;;;19.67
29701;BMP280;57917;51.380;-0.176;2023-05-14T19:05:57;101437.47;;;19.51
29701;BMP280;57917;51.380;-0.176;2023-05-14T19:11:46;101438.09;;;19.48
29701;BMP280;57917;51.380;-0.176;2023-05-14T19:17:34;101438.16;;;19.31
29701;BMP280;57917;51.380;-0.176;2023-05-14T19:23:21;101443.97;;;19.08
29701;BMP280;57917;51.380;-0.176;2023-05-14T19:29:10;101448.75;;;19.02
29701;BMP280;57917;51.380;-0.176;2023-05-14T19:34:59;101446.81;;;18.94
29701;BMP280;57917;51.380;-0.176;2023-05-14T19:40:47;101449.97;;;18.96
29701;BMP280;57917;51.380;-0.176;2023-05-14T19:46:39;101456.00;;;18.93
29701;BMP280;57917;51.380;-0.176;2023-05-14T19:52:32;101459.16;;;18.95
29701;BMP280;57917;51.380;-0.176;2023-05-14T19:58:20;101444.91;;;18.86
29701;BMP280;57917;51.380;-0.176;2023-05-14T20:04:08;101416.19;;;18.61
29701;BMP280;57917;51.380;-0.176;2023-05-14T20:09:56;101412.88;;;18.64
29701;BMP280;57917;51.380;-0.176;2023-05-14T20:15:47;101401.81;;;18.57
29701;BMP280;57917;51.380;-0.176;2023-05-14T20:21:34;101398.00;;;18.49
29701;BMP280;57917;51.380;-0.176;2023-05-14T20:27:22;101404.66;;;18.43
29701;BMP280;57917;51.380;-0.176;2023-05-14T20:33:11;101408.59;;;18.46
29701;BMP280;57917;51.380;-0.176;2023-05-14T20:39:00;101416.44;;;18.34
29701;BMP280;57917;51.380;-0.176;2023-05-14T20:44:50;101405.50;;;18.22
29701;BMP280;57917;51.380;-0.176;2023-05-14T20:50:45;101399.28;;;17.96
29701;BMP280;57917;51.380;-0.176;2023-05-14T20:56:41;101405.16;;;17.76
29701;BMP280;57917;51.380;-0.176;2023-05-14T21:02:33;101397.25;;;17.71
29701;BMP280;57917;51.380;-0.176;2023-05-14T21:08:21;101393.31;;;17.68
29701;BMP280;57917;51.380;-0.176;2023-05-14T21:14:09;101392.81;;;17.66
29701;BMP280;57917;51.380;-0.176;2023-05-14T21:19:56;101383.53;;;17.42
29701;BMP280;57917;51.380;-0.176;2023-05-14T21:25:44;101382.53;;;17.29
29701;BMP280;57917;51.380;-0.176;2023-05-14T21:31:31;101377.03;;;17.34
29701;BMP280;57917;51.380;-0.176;2023-05-14T21:37:20;101384.00;;;17.22
29701;BMP280;57917;51.380;-0.176;2023-05-14T21:43:07;101391.94;;;17.27
29701;BMP280;57917;51.380;-0.176;2023-05-14T21:49:03;101392.38;;;17.20
29701;BMP280;57917;51.380;-0.176;2023-05-14T21:54:54;101395.19;;;17.15
29701;BMP280;57917;51.380;-0.176;2023-05-14T22:01:15;101393.41;;;17.11
29701;BMP280;57917;51.380;-0.176;2023-05-14T22:07:02;101389.47;;;16.95
29701;BMP280;57917;51.380;-0.176;2023-05-14T22:12:51;101389.28;;;16.91
29701;BMP280;57917;51.380;-0.176;2023-05-14T22:18:47;101383.16;;;16.91
29701;BMP280;57917;51.380;-0.176;2023-05-14T22:24:39;101383.00;;;16.74
29701;BMP280;57917;51.380;-0.176;2023-05-14T22:30:30;101375.50;;;16.76
29701;BMP280;57917;51.380;-0.176;2023-05-14T22:36:20;101385.56;;;16.79
29701;BMP280;57917;51.380;-0.176;2023-05-14T22:42:09;101375.66;;;16.79
29701;BMP280;57917;51.380;-0.176;2023-05-14T22:47:57;101369.13;;;16.85
29701;BMP280;57917;51.380;-0.176;2023-05-14T22:53:44;101375.47;;;16.62
29701;BMP280;57917;51.380;-0.176;2023-05-14T22:59:37;101369.09;;;16.50
29701;BMP280;57917;51.380;-0.176;2023-05-14T23:05:30;101367.66;;;16.66
29701;BMP280;57917;51.380;-0.176;2023-05-14T23:11:21;101377.69;;;16.60
29701;BMP280;57917;51.380;-0.176;2023-05-14T23:17:15;101371.53;;;16.60
29701;BMP280;57917;51.380;-0.176;2023-05-14T23:23:04;101371.06;;;16.44
29701;BMP280;57917;51.380;-0.176;2023-05-14T23:28:57;101378.50;;;16.33
29701;BMP280;57917;51.380;-0.176;2023-05-14T23:34:46;101385.53;;;16.29
29701;BMP280;57917;51.380;-0.176;2023-05-14T23:40:33;101373.34;;;16.51
29701;BMP280;57917;51.380;-0.176;2023-05-14T23:46:20;101372.44;;;16.42
29701;BMP280;57917;51.380;-0.176;2023-05-14T23:52:08;101376.91;;;16.32
29701;BMP280;57917;51.380;-0.176;2023-05-14T23:57:54;101377.91;;;16.23
